Terminal Aerodrome Forecast
Issued by NWS

Home | Current Version | Previous Version | Graphics & Text | Print | Product List | Glossary On
Versions: 1 2 3 4 5 6 7 8 9 10 11 12 13 14
000
FTUS43 KTOP 251700
TAFFOE
TAF
KFOE 251727Z 2518/2618 21013G20KT P6SM BKN100
     FM252300 33022G33KT P6SM VCSH BKN035
     FM260100 34020G28KT 6SM -SN OVC023
     FM260300 36024G31KT P6SM OVC013
     FM261400 36016G22KT P6SM OVC015=

USA.gov is the U.S. government's official web portal to all federal, state and local government web resources and services.